sensor_id;sensor_type;location;lat;lon;timestamp;temperature;humidity
24618;DHT22;12762;51.730;5.356;2022-10-28T00:03:37;16.10;82.30
24618;DHT22;12762;51.730;5.356;2022-10-28T00:06:07;16.10;82.50
24618;DHT22;12762;51.730;5.356;2022-10-28T00:08:34;16.10;82.60
24618;DHT22;12762;51.730;5.356;2022-10-28T00:11:10;16.10;82.80
24618;DHT22;12762;51.730;5.356;2022-10-28T00:13:38;16.20;82.90
24618;DHT22;12762;51.730;5.356;2022-10-28T00:16:14;16.20;82.90
24618;DHT22;12762;51.730;5.356;2022-10-28T00:18:45;16.20;83.80
24618;DHT22;12762;51.730;5.356;2022-10-28T00:21:15;16.20;82.90
24618;DHT22;12762;51.730;5.356;2022-10-28T00:23:42;16.20;83.00
24618;DHT22;12762;51.730;5.356;2022-10-28T00:26:15;16.20;83.00
24618;DHT22;12762;51.730;5.356;2022-10-28T00:28:44;16.30;83.10
24618;DHT22;12762;51.730;5.356;2022-10-28T00:31:12;16.30;83.10
24618;DHT22;12762;51.730;5.356;2022-10-28T00:33:39;16.30;83.20
24618;DHT22;12762;51.730;5.356;2022-10-28T00:36:08;16.30;83.20
24618;DHT22;12762;51.730;5.356;2022-10-28T00:38:35;16.30;83.20
24618;DHT22;12762;51.730;5.356;2022-10-28T00:41:02;16.30;83.20
24618;DHT22;12762;51.730;5.356;2022-10-28T00:43:43;16.20;83.10
24618;DHT22;12762;51.730;5.356;2022-10-28T00:46:40;16.20;83.20
24618;DHT22;12762;51.730;5.356;2022-10-28T00:49:18;16.20;82.90
24618;DHT22;12762;51.730;5.356;2022-10-28T00:51:49;16.20;83.10
24618;DHT22;12762;51.730;5.356;2022-10-28T00:54:18;16.20;83.30
24618;DHT22;12762;51.730;5.356;2022-10-28T00:56:51;16.20;83.40
24618;DHT22;12762;51.730;5.356;2022-10-28T00:59:26;16.20;83.50
24618;DHT22;12762;51.730;5.356;2022-10-28T01:01:54;16.10;83.40
24618;DHT22;12762;51.730;5.356;2022-10-28T01:04:22;16.10;83.40
24618;DHT22;12762;51.730;5.356;2022-10-28T01:06:49;16.10;83.40
24618;DHT22;12762;51.730;5.356;2022-10-28T01:09:16;16.10;83.40
24618;DHT22;12762;51.730;5.356;2022-10-28T01:12:18;16.10;83.40
24618;DHT22;12762;51.730;5.356;2022-10-28T01:23:03;15.90;83.30
24618;DHT22;12762;51.730;5.356;2022-10-28T01:28:40;15.90;83.20
24618;DHT22;12762;51.730;5.356;2022-10-28T01:37:14;15.70;83.40
24618;DHT22;12762;51.730;5.356;2022-10-28T01:40:06;15.70;83.30
24618;DHT22;12762;51.730;5.356;2022-10-28T01:45:19;15.60;83.60
24618;DHT22;12762;51.730;5.356;2022-10-28T01:48:01;15.60;83.60
24618;DHT22;12762;51.730;5.356;2022-10-28T01:50:37;15.50;83.80
24618;DHT22;12762;51.730;5.356;2022-10-28T01:53:13;15.50;83.80
24618;DHT22;12762;51.730;5.356;2022-10-28T01:55:44;15.50;83.80
24618;DHT22;12762;51.730;5.356;2022-10-28T01:58:16;15.50;83.90
24618;DHT22;12762;51.730;5.356;2022-10-28T02:00:44;15.50;83.90
24618;DHT22;12762;51.730;5.356;2022-10-28T02:03:12;15.40;83.90
24618;DHT22;12762;51.730;5.356;2022-10-28T02:05:45;15.40;84.00
24618;DHT22;12762;51.730;5.356;2022-10-28T02:08:31;15.40;84.90
24618;DHT22;12762;51.730;5.356;2022-10-28T02:19:08;15.40;84.40
24618;DHT22;12762;51.730;5.356;2022-10-28T02:21:59;15.40;84.50
24618;DHT22;12762;51.730;5.356;2022-10-28T02:24:31;15.40;84.60
24618;DHT22;12762;51.730;5.356;2022-10-28T02:29:48;15.40;84.80
24618;DHT22;12762;51.730;5.356;2022-10-28T02:32:19;15.50;85.80
24618;DHT22;12762;51.730;5.356;2022-10-28T02:34:49;15.50;85.10
24618;DHT22;12762;51.730;5.356;2022-10-28T02:37:21;15.50;85.10
24618;DHT22;12762;51.730;5.356;2022-10-28T02:39:53;15.50;85.20
24618;DHT22;12762;51.730;5.356;2022-10-28T02:42:27;15.60;85.30
24618;DHT22;12762;51.730;5.356;2022-10-28T02:45:02;15.60;85.30
24618;DHT22;12762;51.730;5.356;2022-10-28T02:47:33;15.60;85.30
24618;DHT22;12762;51.730;5.356;2022-10-28T02:50:04;15.60;85.30
24618;DHT22;12762;51.730;5.356;2022-10-28T02:52:33;15.70;85.40
24618;DHT22;12762;51.730;5.356;2022-10-28T02:55:03;15.70;85.40
24618;DHT22;12762;51.730;5.356;2022-10-28T02:57:33;15.70;85.40
24618;DHT22;12762;51.730;5.356;2022-10-28T03:00:06;15.70;85.40
24618;DHT22;12762;51.730;5.356;2022-10-28T03:02:33;15.70;85.40
24618;DHT22;12762;51.730;5.356;2022-10-28T03:05:00;15.70;85.40
24618;DHT22;12762;51.730;5.356;2022-10-28T03:07:27;15.70;85.40
24618;DHT22;12762;51.730;5.356;2022-10-28T03:09:54;15.70;85.40
24618;DHT22;12762;51.730;5.356;2022-10-28T03:12:21;15.70;85.40
24618;DHT22;12762;51.730;5.356;2022-10-28T03:14:47;15.80;85.60
24618;DHT22;12762;51.730;5.356;2022-10-28T03:17:14;15.80;85.50
24618;DHT22;12762;51.730;5.356;2022-10-28T03:19:41;15.80;85.50
24618;DHT22;12762;51.730;5.356;2022-10-28T03:22:08;15.90;85.60
24618;DHT22;12762;51.730;5.356;2022-10-28T03:24:35;15.90;85.50
24618;DHT22;12762;51.730;5.356;2022-10-28T03:27:05;15.90;85.50
24618;DHT22;12762;51.730;5.356;2022-10-28T03:29:31;15.90;85.50
24618;DHT22;12762;51.730;5.356;2022-10-28T03:31:58;15.90;85.40
24618;DHT22;12762;51.730;5.356;2022-10-28T03:34:25;15.90;85.30
24618;DHT22;12762;51.730;5.356;2022-10-28T03:36:52;15.90;85.30
24618;DHT22;12762;51.730;5.356;2022-10-28T03:39:18;15.90;85.30
24618;DHT22;12762;51.730;5.356;2022-10-28T03:41:45;15.90;85.20
24618;DHT22;12762;51.730;5.356;2022-10-28T03:44:12;15.90;85.20
24618;DHT22;12762;51.730;5.356;2022-10-28T03:46:39;15.90;85.30
24618;DHT22;12762;51.730;5.356;2022-10-28T03:49:06;15.90;85.30
24618;DHT22;12762;51.730;5.356;2022-10-28T03:51:33;15.90;85.30
24618;DHT22;12762;51.730;5.356;2022-10-28T03:53:59;15.90;85.30
24618;DHT22;12762;51.730;5.356;2022-10-28T03:56:26;15.90;85.40
24618;DHT22;12762;51.730;5.356;2022-10-28T03:58:53;15.90;85.20
24618;DHT22;12762;51.730;5.356;2022-10-28T04:01:20;15.90;85.30
24618;DHT22;12762;51.730;5.356;2022-10-28T04:03:47;15.90;85.30
24618;DHT22;12762;51.730;5.356;2022-10-28T04:06:14;15.90;85.30
24618;DHT22;12762;51.730;5.356;2022-10-28T04:08:42;15.90;85.30
24618;DHT22;12762;51.730;5.356;2022-10-28T04:11:09;15.90;85.30
24618;DHT22;12762;51.730;5.356;2022-10-28T04:13:35;15.90;85.30
24618;DHT22;12762;51.730;5.356;2022-10-28T04:16:02;15.90;85.30
24618;DHT22;12762;51.730;5.356;2022-10-28T04:18:29;15.90;85.30
24618;DHT22;12762;51.730;5.356;2022-10-28T04:20:56;15.90;85.30
24618;DHT22;12762;51.730;5.356;2022-10-28T04:23:26;15.90;85.30
24618;DHT22;12762;51.730;5.356;2022-10-28T04:25:53;15.90;85.30
24618;DHT22;12762;51.730;5.356;2022-10-28T04:28:23;15.90;85.30
24618;DHT22;12762;51.730;5.356;2022-10-28T04:30:50;15.90;85.20
24618;DHT22;12762;51.730;5.356;2022-10-28T04:33:17;15.90;85.20
24618;DHT22;12762;51.730;5.356;2022-10-28T04:35:43;15.90;85.10
24618;DHT22;12762;51.730;5.356;2022-10-28T04:38:11;15.90;85.20
24618;DHT22;12762;51.730;5.356;2022-10-28T04:40:38;15.90;85.20
24618;DHT22;12762;51.730;5.356;2022-10-28T04:43:05;15.90;85.20
24618;DHT22;12762;51.730;5.356;2022-10-28T04:45:36;15.90;85.10
24618;DHT22;12762;51.730;5.356;2022-10-28T04:48:03;15.90;85.10
24618;DHT22;12762;51.730;5.356;2022-10-28T04:50:33;15.90;85.10
24618;DHT22;12762;51.730;5.356;2022-10-28T04:53:00;15.90;85.10
24618;DHT22;12762;51.730;5.356;2022-10-28T04:55:33;15.90;85.00
24618;DHT22;12762;51.730;5.356;2022-10-28T04:58:00;15.90;85.00
24618;DHT22;12762;51.730;5.356;2022-10-28T05:00:28;15.90;85.00
24618;DHT22;12762;51.730;5.356;2022-10-28T05:02:55;15.80;84.90
24618;DHT22;12762;51.730;5.356;2022-10-28T05:05:23;15.80;85.00
24618;DHT22;12762;51.730;5.356;2022-10-28T05:07:50;15.80;84.90
24618;DHT22;12762;51.730;5.356;2022-10-28T05:10:17;15.80;84.90
24618;DHT22;12762;51.730;5.356;2022-10-28T05:12:47;15.80;85.00
24618;DHT22;12762;51.730;5.356;2022-10-28T05:15:14;15.80;85.10
24618;DHT22;12762;51.730;5.356;2022-10-28T05:17:44;15.80;85.10
24618;DHT22;12762;51.730;5.356;2022-10-28T05:20:14;15.70;85.00
24618;DHT22;12762;51.730;5.356;2022-10-28T05:22:48;15.80;85.20
24618;DHT22;12762;51.730;5.356;2022-10-28T05:25:16;15.80;85.20
24618;DHT22;12762;51.730;5.356;2022-10-28T05:27:43;15.80;85.10
24618;DHT22;12762;51.730;5.356;2022-10-28T05:30:11;15.80;85.10
24618;DHT22;12762;51.730;5.356;2022-10-28T05:32:38;15.80;85.10
24618;DHT22;12762;51.730;5.356;2022-10-28T05:35:06;15.80;85.10
24618;DHT22;12762;51.730;5.356;2022-10-28T05:37:33;15.80;85.10
24618;DHT22;12762;51.730;5.356;2022-10-28T05:39:59;15.80;85.00
24618;DHT22;12762;51.730;5.356;2022-10-28T05:42:26;15.80;85.00
24618;DHT22;12762;51.730;5.356;2022-10-28T05:44:53;15.80;85.10
24618;DHT22;12762;51.730;5.356;2022-10-28T05:47:20;15.80;85.10
24618;DHT22;12762;51.730;5.356;2022-10-28T05:49:47;15.80;85.10
24618;DHT22;12762;51.730;5.356;2022-10-28T05:52:16;15.80;85.10
24618;DHT22;12762;51.730;5.356;2022-10-28T05:54:42;15.80;85.10
24618;DHT22;12762;51.730;5.356;2022-10-28T05:57:09;15.80;85.10
24618;DHT22;12762;51.730;5.356;2022-10-28T05:59:36;15.80;85.00
24618;DHT22;12762;51.730;5.356;2022-10-28T06:02:03;15.90;85.10
24618;DHT22;12762;51.730;5.356;2022-10-28T06:04:30;15.90;85.00
24618;DHT22;12762;51.730;5.356;2022-10-28T06:06:58;15.90;85.00
24618;DHT22;12762;51.730;5.356;2022-10-28T06:09:27;15.90;84.90
24618;DHT22;12762;51.730;5.356;2022-10-28T06:11:54;15.90;84.90
24618;DHT22;12762;51.730;5.356;2022-10-28T06:14:21;15.90;84.80
24618;DHT22;12762;51.730;5.356;2022-10-28T06:16:48;15.90;84.80
24618;DHT22;12762;51.730;5.356;2022-10-28T06:19:14;15.90;84.80
24618;DHT22;12762;51.730;5.356;2022-10-28T06:21:42;15.90;84.70
24618;DHT22;12762;51.730;5.356;2022-10-28T06:24:11;15.90;84.70
24618;DHT22;12762;51.730;5.356;2022-10-28T06:26:40;15.90;84.60
24618;DHT22;12762;51.730;5.356;2022-10-28T06:29:09;15.90;84.70
24618;DHT22;12762;51.730;5.356;2022-10-28T06:31:40;15.90;84.70
24618;DHT22;12762;51.730;5.356;2022-10-28T06:34:10;15.90;84.80
24618;DHT22;12762;51.730;5.356;2022-10-28T06:36:40;15.90;84.80
24618;DHT22;12762;51.730;5.356;2022-10-28T06:39:07;15.90;84.80
24618;DHT22;12762;51.730;5.356;2022-10-28T06:41:36;15.90;84.80
24618;DHT22;12762;51.730;5.356;2022-10-28T06:44:03;15.90;84.70
24618;DHT22;12762;51.730;5.356;2022-10-28T06:46:30;15.90;85.50
24618;DHT22;12762;51.730;5.356;2022-10-28T06:48:57;15.90;84.70
24618;DHT22;12762;51.730;5.356;2022-10-28T06:51:24;16.00;84.80
24618;DHT22;12762;51.730;5.356;2022-10-28T06:53:51;16.00;84.70
24618;DHT22;12762;51.730;5.356;2022-10-28T06:56:21;16.00;84.70
24618;DHT22;12762;51.730;5.356;2022-10-28T06:58:51;16.00;84.60
24618;DHT22;12762;51.730;5.356;2022-10-28T07:01:19;16.10;84.70
24618;DHT22;12762;51.730;5.356;2022-10-28T07:03:48;16.10;84.60
24618;DHT22;12762;51.730;5.356;2022-10-28T07:06:16;16.20;84.50
24618;DHT22;12762;51.730;5.356;2022-10-28T07:08:43;16.20;84.50
24618;DHT22;12762;51.730;5.356;2022-10-28T07:11:10;16.30;84.50
24618;DHT22;12762;51.730;5.356;2022-10-28T07:13:38;16.30;84.30
24618;DHT22;12762;51.730;5.356;2022-10-28T07:16:08;16.30;84.20
24618;DHT22;12762;51.730;5.356;2022-10-28T07:18:34;16.40;84.20
24618;DHT22;12762;51.730;5.356;2022-10-28T07:21:01;16.40;84.10
24618;DHT22;12762;51.730;5.356;2022-10-28T07:23:28;16.40;84.00
24618;DHT22;12762;51.730;5.356;2022-10-28T07:25:58;16.50;84.00
24618;DHT22;12762;51.730;5.356;2022-10-28T07:28:26;16.50;84.00
24618;DHT22;12762;51.730;5.356;2022-10-28T07:30:52;16.50;83.90
24618;DHT22;12762;51.730;5.356;2022-10-28T07:33:19;16.50;83.90
24618;DHT22;12762;51.730;5.356;2022-10-28T07:35:46;16.50;83.80
24618;DHT22;12762;51.730;5.356;2022-10-28T07:38:13;16.50;83.80
24618;DHT22;12762;51.730;5.356;2022-10-28T07:40:41;16.60;83.90
24618;DHT22;12762;51.730;5.356;2022-10-28T07:43:07;16.60;83.80
24618;DHT22;12762;51.730;5.356;2022-10-28T07:45:35;16.60;83.70
24618;DHT22;12762;51.730;5.356;2022-10-28T07:48:05;16.70;83.80
24618;DHT22;12762;51.730;5.356;2022-10-28T07:50:35;16.70;83.70
24618;DHT22;12762;51.730;5.356;2022-10-28T07:53:02;16.80;83.70
24618;DHT22;12762;51.730;5.356;2022-10-28T07:55:31;16.90;83.70
24618;DHT22;12762;51.730;5.356;2022-10-28T07:57:57;16.90;83.60
24618;DHT22;12762;51.730;5.356;2022-10-28T08:00:24;17.00;83.60
24618;DHT22;12762;51.730;5.356;2022-10-28T08:02:51;17.00;83.40
24618;DHT22;12762;51.730;5.356;2022-10-28T08:05:18;17.10;83.30
24618;DHT22;12762;51.730;5.356;2022-10-28T08:07:45;17.20;83.30
24618;DHT22;12762;51.730;5.356;2022-10-28T08:10:13;17.40;83.10
24618;DHT22;12762;51.730;5.356;2022-10-28T08:12:40;17.50;82.90
24618;DHT22;12762;51.730;5.356;2022-10-28T08:15:07;17.70;82.60
24618;DHT22;12762;51.730;5.356;2022-10-28T08:17:36;17.80;82.40
24618;DHT22;12762;51.730;5.356;2022-10-28T08:20:05;18.00;82.30
24618;DHT22;12762;51.730;5.356;2022-10-28T08:22:32;18.20;82.00
24618;DHT22;12762;51.730;5.356;2022-10-28T08:24:59;18.30;81.40
24618;DHT22;12762;51.730;5.356;2022-10-28T08:27:25;18.40;81.10
24618;DHT22;12762;51.730;5.356;2022-10-28T08:29:57;18.40;80.90
24618;DHT22;12762;51.730;5.356;2022-10-28T08:32:23;18.40;80.80
24618;DHT22;12762;51.730;5.356;2022-10-28T08:34:50;18.40;80.80
24618;DHT22;12762;51.730;5.356;2022-10-28T08:37:17;18.40;80.90
24618;DHT22;12762;51.730;5.356;2022-10-28T08:39:45;18.60;81.10
24618;DHT22;12762;51.730;5.356;2022-10-28T08:47:59;19.00;80.90
24618;DHT22;12762;51.730;5.356;2022-10-28T08:50:31;19.10;80.60
24618;DHT22;12762;51.730;5.356;2022-10-28T08:53:12;19.20;80.50
24618;DHT22;12762;51.730;5.356;2022-10-28T08:55:43;19.40;80.50
24618;DHT22;12762;51.730;5.356;2022-10-28T08:58:25;19.50;80.30
24618;DHT22;12762;51.730;5.356;2022-10-28T09:00:55;19.70;80.20
24618;DHT22;12762;51.730;5.356;2022-10-28T09:03:35;19.80;80.00
24618;DHT22;12762;51.730;5.356;2022-10-28T09:06:06;19.90;79.70
24618;DHT22;12762;51.730;5.356;2022-10-28T09:08:39;20.00;79.50
24618;DHT22;12762;51.730;5.356;2022-10-28T09:11:42;20.00;79.40
24618;DHT22;12762;51.730;5.356;2022-10-28T09:14:32;20.00;79.30
24618;DHT22;12762;51.730;5.356;2022-10-28T09:31:25;20.10;79.10
24618;DHT22;12762;51.730;5.356;2022-10-28T09:34:18;20.10;79.10
24618;DHT22;12762;51.730;5.356;2022-10-28T09:39:26;20.10;79.10
24618;DHT22;12762;51.730;5.356;2022-10-28T09:41:56;20.10;79.00
24618;DHT22;12762;51.730;5.356;2022-10-28T09:47:15;20.20;79.10
24618;DHT22;12762;51.730;5.356;2022-10-28T09:49:45;20.30;79.00
24618;DHT22;12762;51.730;5.356;2022-10-28T09:52:18;20.40;79.00
24618;DHT22;12762;51.730;5.356;2022-10-28T09:54:51;20.50;78.90
24618;DHT22;12762;51.730;5.356;2022-10-28T09:57:19;20.70;78.70
24618;DHT22;12762;51.730;5.356;2022-10-28T09:59:47;20.80;78.40
24618;DHT22;12762;51.730;5.356;2022-10-28T10:02:31;21.00;78.40
24618;DHT22;12762;51.730;5.356;2022-10-28T10:05:00;21.10;78.30
24618;DHT22;12762;51.730;5.356;2022-10-28T10:07:52;21.20;77.60
24618;DHT22;12762;51.730;5.356;2022-10-28T10:12:50;21.50;77.30
24618;DHT22;12762;51.730;5.356;2022-10-28T10:18:01;21.80;76.90
24618;DHT22;12762;51.730;5.356;2022-10-28T10:20:47;21.80;76.40
24618;DHT22;12762;51.730;5.356;2022-10-28T10:23:31;22.00;75.20
24618;DHT22;12762;51.730;5.356;2022-10-28T10:26:07;22.00;75.90
24618;DHT22;12762;51.730;5.356;2022-10-28T10:31:17;22.00;75.40
24618;DHT22;12762;51.730;5.356;2022-10-28T10:33:56;22.10;75.40
24618;DHT22;12762;51.730;5.356;2022-10-28T10:36:25;22.20;75.00
24618;DHT22;12762;51.730;5.356;2022-10-28T10:39:02;22.30;74.80
24618;DHT22;12762;51.730;5.356;2022-10-28T10:41:43;22.40;74.60
24618;DHT22;12762;51.730;5.356;2022-10-28T10:49:20;22.50;75.10
24618;DHT22;12762;51.730;5.356;2022-10-28T10:55:06;22.70;73.60
24618;DHT22;12762;51.730;5.356;2022-10-28T10:57:33;22.80;73.40
24618;DHT22;12762;51.730;5.356;2022-10-28T11:00:04;22.90;73.20
24618;DHT22;12762;51.730;5.356;2022-10-28T11:02:36;23.00;72.80
24618;DHT22;12762;51.730;5.356;2022-10-28T11:05:08;23.10;72.30
24618;DHT22;12762;51.730;5.356;2022-10-28T11:07:43;23.10;72.00
24618;DHT22;12762;51.730;5.356;2022-10-28T11:10:28;23.20;71.70
24618;DHT22;12762;51.730;5.356;2022-10-28T11:13:02;23.20;71.10
24618;DHT22;12762;51.730;5.356;2022-10-28T11:15:30;23.30;71.10
24618;DHT22;12762;51.730;5.356;2022-10-28T11:18:15;23.30;70.70
24618;DHT22;12762;51.730;5.356;2022-10-28T11:20:54;23.30;70.30
24618;DHT22;12762;51.730;5.356;2022-10-28T11:26:08;23.40;70.60
24618;DHT22;12762;51.730;5.356;2022-10-28T11:34:23;23.40;70.00
24618;DHT22;12762;51.730;5.356;2022-10-28T11:50:50;23.50;69.20
24618;DHT22;12762;51.730;5.356;2022-10-28T11:53:31;23.50;69.20
24618;DHT22;12762;51.730;5.356;2022-10-28T11:59:10;23.60;68.60
24618;DHT22;12762;51.730;5.356;2022-10-28T12:10:21;23.60;67.80
24618;DHT22;12762;51.730;5.356;2022-10-28T12:13:04;23.60;68.20
24618;DHT22;12762;51.730;5.356;2022-10-28T12:18:34;23.60;67.70
24618;DHT22;12762;51.730;5.356;2022-10-28T12:21:29;23.60;67.30
24618;DHT22;12762;51.730;5.356;2022-10-28T12:23:58;23.60;67.40
24618;DHT22;12762;51.730;5.356;2022-10-28T12:26:55;23.50;67.30
24618;DHT22;12762;51.730;5.356;2022-10-28T12:29:35;23.50;67.60
24618;DHT22;12762;51.730;5.356;2022-10-28T12:32:24;23.50;67.20
24618;DHT22;12762;51.730;5.356;2022-10-28T12:35:00;23.50;67.30
24618;DHT22;12762;51.730;5.356;2022-10-28T12:37:37;23.40;67.00
24618;DHT22;12762;51.730;5.356;2022-10-28T12:40:22;23.40;67.20
24618;DHT22;12762;51.730;5.356;2022-10-28T12:45:33;23.40;67.20
24618;DHT22;12762;51.730;5.356;2022-10-28T12:48:37;23.40;67.30
24618;DHT22;12762;51.730;5.356;2022-10-28T12:51:13;23.30;67.40
24618;DHT22;12762;51.730;5.356;2022-10-28T12:53:52;23.30;67.20
24618;DHT22;12762;51.730;5.356;2022-10-28T12:57:11;23.20;66.90
24618;DHT22;12762;51.730;5.356;2022-10-28T12:59:16;23.20;67.20
24618;DHT22;12762;51.730;5.356;2022-10-28T13:01:47;23.10;67.30
24618;DHT22;12762;51.730;5.356;2022-10-28T13:04:18;23.10;67.50
24618;DHT22;12762;51.730;5.356;2022-10-28T13:10:07;23.00;67.80
24618;DHT22;12762;51.730;5.356;2022-10-28T13:24:27;22.80;67.80
24618;DHT22;12762;51.730;5.356;2022-10-28T13:26:57;22.70;68.10
24618;DHT22;12762;51.730;5.356;2022-10-28T13:29:30;22.70;68.10
24618;DHT22;12762;51.730;5.356;2022-10-28T13:31:57;22.70;68.00
24618;DHT22;12762;51.730;5.356;2022-10-28T13:34:38;22.60;68.00
24618;DHT22;12762;51.730;5.356;2022-10-28T13:37:17;22.70;68.10
24618;DHT22;12762;51.730;5.356;2022-10-28T13:39:45;22.60;67.90
24618;DHT22;12762;51.730;5.356;2022-10-28T13:45:01;22.70;68.00
24618;DHT22;12762;51.730;5.356;2022-10-28T13:47:35;22.70;68.00
24618;DHT22;12762;51.730;5.356;2022-10-28T13:52:39;22.70;67.90
24618;DHT22;12762;51.730;5.356;2022-10-28T13:58:29;22.70;67.90
24618;DHT22;12762;51.730;5.356;2022-10-28T14:04:03;22.70;68.00
24618;DHT22;12762;51.730;5.356;2022-10-28T14:06:32;22.70;67.80
24618;DHT22;12762;51.730;5.356;2022-10-28T14:09:00;22.70;67.70
24618;DHT22;12762;51.730;5.356;2022-10-28T14:11:28;22.70;67.70
24618;DHT22;12762;51.730;5.356;2022-10-28T14:13:59;22.70;67.70
24618;DHT22;12762;51.730;5.356;2022-10-28T14:16:33;22.70;67.60
24618;DHT22;12762;51.730;5.356;2022-10-28T14:19:15;22.70;67.70
24618;DHT22;12762;51.730;5.356;2022-10-28T14:52:54;22.40;68.40
24618;DHT22;12762;51.730;5.356;2022-10-28T14:55:30;22.40;68.40
24618;DHT22;12762;51.730;5.356;2022-10-28T15:01:08;22.40;68.60
24618;DHT22;12762;51.730;5.356;2022-10-28T15:03:40;22.40;68.50
24618;DHT22;12762;51.730;5.356;2022-10-28T15:06:29;22.30;68.60
24618;DHT22;12762;51.730;5.356;2022-10-28T15:09:03;22.30;68.80
24618;DHT22;12762;51.730;5.356;2022-10-28T15:11:31;22.20;68.80
24618;DHT22;12762;51.730;5.356;2022-10-28T15:14:12;22.20;69.00
24618;DHT22;12762;51.730;5.356;2022-10-28T15:16:47;22.20;69.90
24618;DHT22;12762;51.730;5.356;2022-10-28T15:19:21;22.10;69.10
24618;DHT22;12762;51.730;5.356;2022-10-28T15:21:59;22.10;69.20
24618;DHT22;12762;51.730;5.356;2022-10-28T15:24:26;22.00;69.20
24618;DHT22;12762;51.730;5.356;2022-10-28T15:26:56;22.00;69.40
24618;DHT22;12762;51.730;5.356;2022-10-28T15:29:23;22.00;69.50
24618;DHT22;12762;51.730;5.356;2022-10-28T15:34:31;21.90;69.60
24618;DHT22;12762;51.730;5.356;2022-10-28T15:36:58;21.90;69.80
24618;DHT22;12762;51.730;5.356;2022-10-28T15:39:26;21.80;69.90
24618;DHT22;12762;51.730;5.356;2022-10-28T15:41:52;21.80;70.00
24618;DHT22;12762;51.730;5.356;2022-10-28T15:44:36;21.80;70.20
24618;DHT22;12762;51.730;5.356;2022-10-28T15:47:22;21.70;70.20
24618;DHT22;12762;51.730;5.356;2022-10-28T15:52:46;21.70;70.30
24618;DHT22;12762;51.730;5.356;2022-10-28T15:55:25;21.60;70.50
24618;DHT22;12762;51.730;5.356;2022-10-28T16:00:52;21.60;70.70
24618;DHT22;12762;51.730;5.356;2022-10-28T16:06:20;21.50;70.70
24618;DHT22;12762;51.730;5.356;2022-10-28T16:09:05;21.50;70.80
24618;DHT22;12762;51.730;5.356;2022-10-28T16:11:34;21.50;70.80
24618;DHT22;12762;51.730;5.356;2022-10-28T16:16:45;21.40;70.90
24618;DHT22;12762;51.730;5.356;2022-10-28T16:19:34;21.40;71.00
24618;DHT22;12762;51.730;5.356;2022-10-28T16:22:02;21.30;71.00
24618;DHT22;12762;51.730;5.356;2022-10-28T16:24:30;21.20;71.10
24618;DHT22;12762;51.730;5.356;2022-10-28T16:27:19;21.20;71.20
24618;DHT22;12762;51.730;5.356;2022-10-28T16:29:47;21.10;71.10
24618;DHT22;12762;51.730;5.356;2022-10-28T16:32:21;21.10;71.40
24618;DHT22;12762;51.730;5.356;2022-10-28T16:34:48;21.00;71.40
24618;DHT22;12762;51.730;5.356;2022-10-28T16:37:29;21.00;71.60
24618;DHT22;12762;51.730;5.356;2022-10-28T16:39:56;20.90;71.60
24618;DHT22;12762;51.730;5.356;2022-10-28T16:42:29;20.90;71.80
24618;DHT22;12762;51.730;5.356;2022-10-28T16:44:55;20.80;71.90
24618;DHT22;12762;51.730;5.356;2022-10-28T16:47:23;20.80;72.00
24618;DHT22;12762;51.730;5.356;2022-10-28T16:49:57;20.70;72.10
24618;DHT22;12762;51.730;5.356;2022-10-28T16:52:32;20.70;72.20
24618;DHT22;12762;51.730;5.356;2022-10-28T16:54:59;20.60;72.20
24618;DHT22;12762;51.730;5.356;2022-10-28T16:57:26;20.60;72.30
24618;DHT22;12762;51.730;5.356;2022-10-28T16:59:55;20.50;72.40
24618;DHT22;12762;51.730;5.356;2022-10-28T17:02:32;20.40;72.50
24618;DHT22;12762;51.730;5.356;2022-10-28T17:05:01;20.40;72.60
24618;DHT22;12762;51.730;5.356;2022-10-28T17:07:35;20.30;72.80
24618;DHT22;12762;51.730;5.356;2022-10-28T17:10:02;20.30;73.00
24618;DHT22;12762;51.730;5.356;2022-10-28T17:12:29;20.30;73.10
24618;DHT22;12762;51.730;5.356;2022-10-28T17:14:56;20.20;73.10
24618;DHT22;12762;51.730;5.356;2022-10-28T17:17:25;20.20;73.20
24618;DHT22;12762;51.730;5.356;2022-10-28T17:19:52;20.20;73.30
24618;DHT22;12762;51.730;5.356;2022-10-28T17:22:19;20.20;73.40
24618;DHT22;12762;51.730;5.356;2022-10-28T17:24:46;20.10;73.40
24618;DHT22;12762;51.730;5.356;2022-10-28T17:27:12;20.10;73.50
24618;DHT22;12762;51.730;5.356;2022-10-28T17:29:39;20.00;73.60
24618;DHT22;12762;51.730;5.356;2022-10-28T17:32:08;20.00;73.70
24618;DHT22;12762;51.730;5.356;2022-10-28T17:34:38;20.00;73.80
24618;DHT22;12762;51.730;5.356;2022-10-28T17:37:05;20.00;73.90
24618;DHT22;12762;51.730;5.356;2022-10-28T17:39:33;19.90;73.90
24618;DHT22;12762;51.730;5.356;2022-10-28T17:42:00;19.90;74.00
24618;DHT22;12762;51.730;5.356;2022-10-28T17:44:27;19.80;74.00
24618;DHT22;12762;51.730;5.356;2022-10-28T17:46:53;19.80;74.10
24618;DHT22;12762;51.730;5.356;2022-10-28T17:49:20;19.80;74.20
24618;DHT22;12762;51.730;5.356;2022-10-28T17:51:47;19.80;74.30
24618;DHT22;12762;51.730;5.356;2022-10-28T17:54:16;19.70;74.30
24618;DHT22;12762;51.730;5.356;2022-10-28T17:56:43;19.70;74.50
24618;DHT22;12762;51.730;5.356;2022-10-28T17:59:11;19.70;74.60
24618;DHT22;12762;51.730;5.356;2022-10-28T18:01:37;19.70;74.60
24618;DHT22;12762;51.730;5.356;2022-10-28T18:04:04;19.60;74.70
24618;DHT22;12762;51.730;5.356;2022-10-28T18:06:31;19.60;74.80
24618;DHT22;12762;51.730;5.356;2022-10-28T18:08:58;19.50;74.80
24618;DHT22;12762;51.730;5.356;2022-10-28T18:11:25;19.50;75.70
24618;DHT22;12762;51.730;5.356;2022-10-28T18:13:56;19.40;74.90
24618;DHT22;12762;51.730;5.356;2022-10-28T18:16:24;19.40;75.10
24618;DHT22;12762;51.730;5.356;2022-10-28T18:18:56;19.40;75.20
24618;DHT22;12762;51.730;5.356;2022-10-28T18:21:28;19.40;75.30
24618;DHT22;12762;51.730;5.356;2022-10-28T18:23:54;19.30;75.40
24618;DHT22;12762;51.730;5.356;2022-10-28T18:26:32;19.30;75.50
24618;DHT22;12762;51.730;5.356;2022-10-28T18:28:59;19.20;75.60
24618;DHT22;12762;51.730;5.356;2022-10-28T18:31:33;19.20;75.70
24618;DHT22;12762;51.730;5.356;2022-10-28T18:34:01;19.10;75.80
24618;DHT22;12762;51.730;5.356;2022-10-28T18:36:30;19.10;75.90
24618;DHT22;12762;51.730;5.356;2022-10-28T18:39:04;19.10;76.00
24618;DHT22;12762;51.730;5.356;2022-10-28T18:41:34;19.10;76.10
24618;DHT22;12762;51.730;5.356;2022-10-28T18:44:04;19.00;76.10
24618;DHT22;12762;51.730;5.356;2022-10-28T18:46:33;19.00;76.30
24618;DHT22;12762;51.730;5.356;2022-10-28T18:49:00;19.00;76.40
24618;DHT22;12762;51.730;5.356;2022-10-28T18:51:28;18.90;76.40
24618;DHT22;12762;51.730;5.356;2022-10-28T18:53:56;18.90;76.50
24618;DHT22;12762;51.730;5.356;2022-10-28T18:56:24;18.90;76.70
24618;DHT22;12762;51.730;5.356;2022-10-28T18:58:55;18.90;76.80
24618;DHT22;12762;51.730;5.356;2022-10-28T19:01:27;18.80;76.80
24618;DHT22;12762;51.730;5.356;2022-10-28T19:03:56;18.80;76.90